Time,TemperatureF,DewpointF,PressureIn,WindDirection,WindDirectionDegrees,WindSpeedMPH,WindSpeedGustMPH,Humidity,HourlyPrecipIn,Conditions,Clouds,dailyrainin,SoftwareType,DateUTC
2013-03-05 00:02:00,27.0,27.0,30.06,NNE,23,0.0,0.0,100,0.00,,,0.04,,2013-03-05 08:02:00,
2013-03-05 00:21:00,27.0,27.0,30.05,NNE,23,0.0,0.0,100,0.00,,,0.04,,2013-03-05 08:21:00,
2013-03-05 00:31:00,27.0,27.0,30.05,NNE,23,0.0,0.0,100,0.00,,,0.04,,2013-03-05 08:31:00,
2013-03-05 00:51:00,27.0,27.0,30.05,NNE,23,0.0,0.0,100,0.00,,,0.04,,2013-03-05 08:51:00,
2013-03-05 01:01:00,27.0,27.0,30.05,NNE,23,0.0,0.0,100,0.00,,,0.04,,2013-03-05 09:01:00,
2013-03-05 01:11:00,27.0,27.0,30.05,NNE,23,0.0,0.0,100,0.00,,,0.04,,2013-03-05 09:11:00,
2013-03-05 01:21:00,27.0,27.0,30.05,NNE,23,0.0,0.0,100,0.00,,,0.04,,2013-03-05 09:21:00,
2013-03-05 01:31:00,27.0,27.0,30.04,NNE,23,0.0,0.0,100,0.00,,,0.04,,2013-03-05 09:31:00,
2013-03-05 01:51:00,26.0,26.0,30.03,ENE,68,0.0,0.0,100,0.00,,,0.03,,2013-03-05 09:51:00,
2013-03-05 02:01:00,27.0,27.0,30.03,ENE,68,0.0,0.0,100,0.00,,,0.03,,2013-03-05 10:01:00,
2013-03-05 02:21:00,27.0,27.0,30.03,East,90,6.0,7.0,100,0.00,,,0.03,,2013-03-05 10:21:00,
2013-03-05 02:32:00,27.0,27.0,30.03,NE,45,0.0,0.0,100,0.00,,,0.03,,2013-03-05 10:32:00,
2013-03-05 02:51:00,27.0,27.0,30.03,NE,45,3.0,5.0,100,0.00,,,0.03,,2013-03-05 10:51:00,
2013-03-05 03:01:00,27.0,27.0,30.02,NE,45,0.0,0.0,100,0.00,,,0.03,,2013-03-05 11:01:00,
2013-03-05 03:11:00,27.0,27.0,30.01,ENE,68,5.0,5.0,100,0.00,,,0.03,,2013-03-05 11:11:00,
2013-03-05 03:21:00,27.0,27.0,30.01,ENE,68,5.0,5.0,100,0.00,,,0.03,,2013-03-05 11:21:00,
2013-03-05 03:32:00,27.0,27.0,30.01,ENE,68,1.0,0.0,100,0.00,,,0.03,,2013-03-05 11:32:00,
2013-03-05 03:52:00,27.0,27.0,30.01,ENE,68,0.0,6.0,100,0.00,,,0.03,,2013-03-05 11:52:00,
2013-03-05 04:02:00,26.0,26.0,30.00,ENE,68,0.0,0.0,100,0.00,,,0.03,,2013-03-05 12:02:00,
2013-03-05 04:11:00,26.0,26.0,30.00,ENE,68,0.0,0.0,100,0.00,,,0.03,,2013-03-05 12:11:00,
2013-03-05 04:22:00,27.0,27.0,30.00,NE,45,2.0,0.0,100,0.00,,,0.03,,2013-03-05 12:22:00,
2013-03-05 04:32:00,27.0,27.0,30.01,NE,45,0.0,0.0,100,0.00,,,0.03,,2013-03-05 12:32:00,
2013-03-05 04:52:00,27.0,27.0,30.01,ENE,68,0.0,0.0,100,0.00,,,0.03,,2013-03-05 12:52:00,
2013-03-05 05:01:00,28.0,28.0,30.00,ENE,68,5.0,6.0,100,0.00,,,0.03,,2013-03-05 13:01:00,
2013-03-05 05:21:00,27.0,27.0,30.00,ENE,68,6.0,7.0,100,0.00,,,0.03,,2013-03-05 13:21:00,
2013-03-05 05:31:00,27.0,27.0,30.00,East,90,0.0,0.0,100,0.00,,,0.03,,2013-03-05 13:31:00,
2013-03-05 05:51:00,27.0,27.0,29.99,East,90,5.0,7.0,100,0.00,,,0.03,,2013-03-05 13:51:00,
2013-03-05 06:02:00,27.0,27.0,30.00,ENE,68,6.0,6.0,100,0.00,,,0.02,,2013-03-05 14:02:00,
2013-03-05 06:11:00,27.0,27.0,30.00,ENE,68,6.0,6.0,100,0.00,,,0.02,,2013-03-05 14:11:00,
2013-03-05 06:21:00,26.0,26.0,30.00,ENE,68,0.0,0.0,100,0.00,,,0.02,,2013-03-05 14:21:00,
2013-03-05 06:31:00,27.0,27.0,30.00,ENE,68,6.0,6.0,100,0.00,,,0.02,,2013-03-05 14:31:00,
2013-03-05 06:52:00,27.0,27.0,30.00,NE,45,3.0,6.0,100,0.00,,,0.02,,2013-03-05 14:52:00,
2013-03-05 07:01:00,28.0,28.0,30.00,ENE,68,0.0,0.0,100,0.00,,,0.02,,2013-03-05 15:01:00,
2013-03-05 07:21:00,28.0,28.0,30.00,NE,45,6.0,8.0,100,0.00,,,0.02,,2013-03-05 15:21:00,
2013-03-05 07:31:00,28.0,28.0,30.00,NE,45,6.0,6.0,100,0.00,,,0.02,,2013-03-05 15:31:00,
2013-03-05 07:51:00,29.0,29.0,29.99,NE,45,6.0,8.0,100,0.00,,,0.02,,2013-03-05 15:51:00,
2013-03-05 08:01:00,29.0,29.0,29.99,ENE,68,6.0,7.0,100,0.00,,,0.02,,2013-03-05 16:01:00,
2013-03-05 08:21:00,29.0,29.0,29.99,ENE,68,7.0,8.0,100,0.00,,,0.02,,2013-03-05 16:21:00,
2013-03-05 08:31:00,30.0,30.0,29.99,ENE,68,6.0,7.0,100,0.00,,,0.02,,2013-03-05 16:31:00,
2013-03-05 08:51:00,31.0,31.0,29.98,East,90,7.0,9.0,100,0.00,,,0.02,,2013-03-05 16:51:00,
2013-03-05 09:01:00,31.0,31.0,29.98,ENE,68,7.0,8.0,100,0.00,,,0.02,,2013-03-05 17:01:00,
2013-03-05 09:32:00,31.0,31.0,29.97,ENE,68,6.0,8.0,100,0.00,,,0.02,,2013-03-05 17:32:00,
2013-03-05 09:52:00,32.0,32.0,29.97,ENE,68,8.0,9.0,100,0.01,,,0.03,,2013-03-05 17:52:00,
2013-03-05 10:01:00,32.0,32.0,29.96,NE,45,8.0,10.0,100,0.01,,,0.03,,2013-03-05 18:01:00,
2013-03-05 10:21:00,32.0,32.0,29.96,NE,45,8.0,12.0,100,0.01,,,0.03,,2013-03-05 18:21:00,
2013-03-05 10:31:00,32.0,32.0,29.96,NE,45,8.0,10.0,100,0.01,,,0.03,,2013-03-05 18:31:00,
2013-03-05 10:52:00,33.0,33.0,29.95,North,0,0.0,0.0,100,0.00,,,0.03,,2013-03-05 18:52:00,
2013-03-05 11:01:00,33.0,33.0,29.95,North,0,0.0,0.0,100,0.00,,,0.03,,2013-03-05 19:01:00,
2013-03-05 11:21:00,34.0,34.0,29.94,North,0,0.0,0.0,100,0.00,,,0.02,,2013-03-05 19:21:00,
2013-03-05 11:31:00,34.0,34.0,29.95,North,0,0.0,0.0,100,0.00,,,0.02,,2013-03-05 19:31:00,
2013-03-05 11:51:00,34.0,34.0,29.95,North,0,0.0,0.0,100,0.00,,,0.02,,2013-03-05 19:51:00,
2013-03-05 12:01:00,34.0,34.0,29.95,North,0,0.0,0.0,100,0.00,,,0.02,,2013-03-05 20:01:00,
2013-03-05 12:11:00,35.0,35.0,29.93,North,0,0.0,0.0,100,0.00,,,0.02,,2013-03-05 20:11:00,
2013-03-05 12:21:00,35.0,35.0,29.93,North,0,0.0,0.0,100,0.00,,,0.02,,2013-03-05 20:21:00,
2013-03-05 12:32:00,36.0,36.0,29.93,NNE,23,8.0,9.0,100,0.00,,,0.02,,2013-03-05 20:32:00,
2013-03-05 12:52:00,37.0,37.0,29.93,NE,45,9.0,10.0,100,0.00,,,0.02,,2013-03-05 20:52:00,
2013-03-05 13:01:00,37.0,37.0,29.92,NNE,23,12.0,15.0,100,0.00,,,0.02,,2013-03-05 21:01:00,
2013-03-05 13:21:00,37.0,37.0,29.91,NNE,23,12.0,16.0,100,0.00,,,0.02,,2013-03-05 21:21:00,
2013-03-05 13:31:00,38.0,38.0,29.91,NNE,23,0.0,0.0,100,0.00,,,0.02,,2013-03-05 21:31:00,
2013-03-05 13:52:00,38.0,38.0,29.91,NE,45,7.0,10.0,100,0.00,,,0.02,,2013-03-05 21:52:00,
2013-03-05 14:01:00,38.0,38.0,29.91,NNE,23,9.0,12.0,100,0.00,,,0.02,,2013-03-05 22:01:00,
2013-03-05 14:21:00,38.0,38.0,29.90,NNE,23,0.0,0.0,100,0.00,,,0.02,,2013-03-05 22:21:00,
2013-03-05 14:31:00,38.0,38.0,29.91,NNE,23,5.0,14.0,100,0.00,,,0.02,,2013-03-05 22:31:00,
2013-03-05 14:51:00,37.0,37.0,29.91,NNW,338,0.0,0.0,100,0.00,,,0.02,,2013-03-05 22:51:00,
2013-03-05 15:01:00,37.0,37.0,29.90,NNE,23,0.0,0.0,100,0.00,,,0.02,,2013-03-05 23:01:00,
2013-03-05 15:21:00,37.0,37.0,29.90,NNE,23,0.0,0.0,100,0.00,,,0.02,,2013-03-05 23:21:00,
2013-03-05 15:32:00,37.0,37.0,29.90,NNE,23,0.0,0.0,100,0.00,,,0.02,,2013-03-05 23:32:00,
2013-03-05 15:52:00,37.0,37.0,29.90,NNE,23,0.0,0.0,100,0.00,,,0.02,,2013-03-05 23:52:00,
2013-03-05 16:01:00,37.0,37.0,29.90,NNE,23,0.0,0.0,100,0.00,,,0.02,,2013-03-06 00:01:00,
2013-03-05 16:21:00,36.0,36.0,29.90,NNE,23,0.0,0.0,100,0.00,,,0.02,,2013-03-06 00:21:00,
2013-03-05 16:32:00,35.0,35.0,29.89,NNE,23,0.0,0.0,100,0.00,,,0.02,,2013-03-06 00:32:00,
2013-03-05 16:51:00,35.0,35.0,29.89,NNE,23,0.0,0.0,100,0.00,,,0.02,,2013-03-06 00:51:00,
2013-03-05 17:01:00,35.0,35.0,29.89,NNE,23,0.0,0.0,100,0.00,,,0.02,,2013-03-06 01:01:00,
2013-03-05 17:21:00,34.0,34.0,29.89,NNE,23,0.0,0.0,100,0.00,,,0.02,,2013-03-06 01:21:00,
2013-03-05 17:31:00,34.0,34.0,29.88,NNE,23,3.0,10.0,100,0.00,,,0.02,,2013-03-06 01:31:00,
2013-03-05 17:41:00,34.0,34.0,29.88,NNE,23,3.0,10.0,100,0.00,,,0.02,,2013-03-06 01:41:00,
2013-03-05 17:51:00,34.0,34.0,29.88,NNE,23,8.0,10.0,100,0.00,,,0.02,,2013-03-06 01:51:00,
2013-03-05 18:01:00,34.0,34.0,29.87,NE,45,10.0,14.0,100,0.00,,,0.02,,2013-03-06 02:01:00,
2013-03-05 18:11:00,34.0,34.0,29.87,NE,45,10.0,14.0,100,0.00,,,0.02,,2013-03-06 02:11:00,
2013-03-05 18:21:00,34.0,34.0,29.87,North,0,0.0,0.0,100,0.00,,,0.02,,2013-03-06 02:21:00,
2013-03-05 18:31:00,34.0,34.0,29.87,North,0,0.0,0.0,100,0.00,,,0.02,,2013-03-06 02:31:00,
2013-03-05 18:41:00,34.0,34.0,29.87,North,0,0.0,0.0,100,0.00,,,0.02,,2013-03-06 02:41:00,
2013-03-05 18:52:00,33.0,33.0,29.87,North,0,0.0,0.0,100,0.00,,,0.02,,2013-03-06 02:52:00,
2013-03-05 19:01:00,34.0,34.0,29.87,North,0,0.0,0.0,100,0.00,,,0.02,,2013-03-06 03:01:00,
2013-03-05 19:11:00,34.0,34.0,29.87,North,0,0.0,0.0,100,0.00,,,0.02,,2013-03-06 03:11:00,
2013-03-05 19:21:00,33.0,33.0,29.86,North,0,0.0,0.0,100,0.00,,,0.02,,2013-03-06 03:21:00,
2013-03-05 19:31:00,33.0,33.0,29.86,North,0,0.0,0.0,100,0.00,,,0.02,,2013-03-06 03:31:00,
2013-03-05 19:41:00,33.0,33.0,29.86,North,0,0.0,0.0,100,0.00,,,0.02,,2013-03-06 03:41:00,
2013-03-05 19:52:00,33.0,33.0,29.86,North,0,0.0,0.0,100,0.00,,,0.02,,2013-03-06 03:52:00,
2013-03-05 20:01:00,33.0,33.0,29.85,North,0,0.0,0.0,100,0.00,,,0.02,,2013-03-06 04:01:00,
2013-03-05 20:11:00,33.0,33.0,29.85,North,0,0.0,0.0,100,0.00,,,0.02,,2013-03-06 04:11:00,
2013-03-05 20:21:00,33.0,33.0,29.85,North,0,0.0,0.0,100,0.00,,,0.02,,2013-03-06 04:21:00,
2013-03-05 20:31:00,33.0,33.0,29.84,North,0,0.0,0.0,100,0.00,,,0.02,,2013-03-06 04:31:00,
2013-03-05 20:41:00,33.0,33.0,29.84,North,0,0.0,0.0,100,0.00,,,0.02,,2013-03-06 04:41:00,
2013-03-05 20:51:00,33.0,33.0,29.84,North,0,0.0,0.0,100,0.00,,,0.02,,2013-03-06 04:51:00,
2013-03-05 21:01:00,33.0,33.0,29.84,North,0,0.0,0.0,100,0.00,,,0.02,,2013-03-06 05:01:00,
2013-03-05 21:11:00,33.0,33.0,29.84,North,0,0.0,0.0,100,0.00,,,0.02,,2013-03-06 05:11:00,
2013-03-05 21:22:00,33.0,33.0,29.84,North,0,0.0,0.0,100,0.00,,,0.02,,2013-03-06 05:22:00,
2013-03-05 21:32:00,33.0,33.0,29.83,North,0,0.0,0.0,100,0.00,,,0.02,,2013-03-06 05:32:00,
2013-03-05 21:42:00,33.0,33.0,29.83,North,0,0.0,0.0,100,0.00,,,0.02,,2013-03-06 05:42:00,
2013-03-05 21:52:00,33.0,33.0,29.83,North,0,0.0,0.0,100,0.00,,,0.02,,2013-03-06 05:52:00,
2013-03-05 22:01:00,33.0,33.0,29.83,North,0,0.0,0.0,100,0.00,,,0.02,,2013-03-06 06:01:00,
2013-03-05 22:11:00,33.0,33.0,29.83,North,0,0.0,0.0,100,0.00,,,0.02,,2013-03-06 06:11:00,
2013-03-05 22:21:00,33.0,33.0,29.83,North,0,0.0,0.0,100,0.00,,,0.02,,2013-03-06 06:21:00,
2013-03-05 22:31:00,33.0,33.0,29.82,North,0,0.0,0.0,100,0.00,,,0.01,,2013-03-06 06:31:00,
2013-03-05 22:41:00,33.0,33.0,29.82,North,0,0.0,0.0,100,0.00,,,0.01,,2013-03-06 06:41:00,
2013-03-05 22:52:00,33.0,33.0,29.82,North,0,0.0,0.0,100,0.00,,,0.01,,2013-03-06 06:52:00,
2013-03-05 23:01:00,32.0,32.0,29.82,North,0,0.0,0.0,100,0.00,,,0.01,,2013-03-06 07:01:00,
2013-03-05 23:11:00,32.0,32.0,29.82,North,0,0.0,0.0,100,0.00,,,0.01,,2013-03-06 07:11:00,
2013-03-05 23:21:00,33.0,33.0,29.81,North,0,0.0,0.0,100,0.00,,,0.01,,2013-03-06 07:21:00,
2013-03-05 23:31:00,32.0,32.0,29.80,North,0,0.0,0.0,100,0.00,,,0.01,,2013-03-06 07:31:00,
2013-03-05 23:41:00,32.0,32.0,29.80,North,0,0.0,0.0,100,0.00,,,0.01,,2013-03-06 07:41:00,
2013-03-05 23:52:00,32.0,32.0,29.80,North,0,0.0,0.0,100,0.00,,,0.01,,2013-03-06 07:52:00,